createdAt,value
2018-06-16T00:02:12.445Z,11.97
2018-06-16T00:04:40.756Z,13.20
2018-06-16T00:07:09.100Z,13.50
2018-06-16T00:09:37.442Z,13.75
2018-06-16T00:12:05.789Z,13.83
2018-06-16T00:14:34.138Z,14.10
2018-06-16T00:17:02.481Z,13.53
2018-06-16T00:19:30.812Z,13.28
2018-06-16T00:21:59.161Z,13.53
2018-06-16T00:24:27.480Z,14.40
2018-06-16T00:26:55.828Z,16.05
2018-06-16T00:29:24.150Z,14.60
2018-06-16T00:31:52.489Z,13.75
2018-06-16T00:34:20.833Z,15.08
2018-06-16T00:36:48.889Z,14.10
2018-06-16T00:39:17.200Z,14.05
2018-06-16T00:41:45.536Z,14.13
2018-06-16T00:44:13.856Z,14.00
2018-06-16T00:46:42.205Z,14.28
2018-06-16T00:49:10.756Z,13.85
2018-06-16T00:51:39.111Z,13.78
2018-06-16T00:54:07.441Z,14.63
2018-06-16T00:56:35.785Z,14.63
2018-06-16T00:59:04.136Z,13.60
2018-06-16T01:01:32.468Z,14.75
2018-06-16T01:04:00.813Z,15.08
2018-06-16T01:06:29.166Z,14.33
2018-06-16T01:08:57.506Z,14.33
2018-06-16T01:11:25.825Z,13.03
2018-06-16T01:13:54.168Z,14.23
2018-06-16T01:16:22.523Z,13.55
2018-06-16T01:18:50.847Z,13.60
2018-06-16T01:21:19.190Z,14.28
2018-06-16T01:23:47.532Z,13.72
2018-06-16T01:26:15.864Z,14.98
2018-06-16T01:28:44.223Z,12.60
2018-06-16T01:31:12.565Z,12.23
2018-06-16T01:33:40.915Z,14.53
2018-06-16T01:36:08.980Z,13.65
2018-06-16T01:38:37.327Z,13.22
2018-06-16T01:41:05.661Z,13.60
2018-06-16T01:43:33.993Z,13.18
2018-06-16T01:46:02.341Z,14.20
2018-06-16T01:48:30.677Z,13.38
2018-06-16T01:50:59.001Z,12.68
2018-06-16T01:53:27.349Z,13.18
2018-06-16T01:55:55.392Z,12.35
2018-06-16T01:58:23.730Z,11.38
2018-06-16T02:00:52.057Z,12.73
2018-06-16T02:03:20.397Z,12.70
2018-06-16T02:05:48.727Z,13.48
2018-06-16T02:08:17.081Z,12.23
2018-06-16T02:10:45.408Z,13.40
2018-06-16T02:13:13.738Z,14.93
2018-06-16T02:15:42.090Z,12.33
2018-06-16T02:18:10.413Z,13.28
2018-06-16T02:20:38.792Z,12.78
2018-06-16T02:23:07.133Z,13.28
2018-06-16T02:25:35.465Z,13.88
2018-06-16T02:28:03.793Z,15.38
2018-06-16T02:30:32.136Z,14.45
2018-06-16T02:33:00.181Z,13.30
2018-06-16T02:35:28.514Z,12.93
2018-06-16T02:37:56.852Z,14.80
2018-06-16T02:40:25.205Z,14.65
2018-06-16T02:42:53.537Z,12.10
2018-06-16T02:45:21.885Z,12.98
2018-06-16T02:47:50.240Z,12.00
2018-06-16T02:50:18.663Z,13.60
2018-06-16T02:52:46.936Z,13.45
2018-06-16T02:55:15.000Z,12.33
2018-06-16T02:57:43.045Z,13.20
2018-06-16T03:00:11.405Z,14.80
2018-06-16T03:02:39.749Z,15.18
2018-06-16T03:05:08.113Z,14.00
2018-06-16T03:07:36.166Z,15.08
2018-06-16T03:10:04.546Z,13.48
2018-06-16T03:12:32.877Z,13.25
2018-06-16T03:15:01.239Z,14.07
2018-06-16T03:17:29.624Z,13.58
2018-06-16T03:19:57.994Z,13.90
2018-06-16T03:22:26.344Z,12.68
2018-06-16T03:24:54.744Z,13.65
2018-06-16T03:27:23.074Z,14.40
2018-06-16T03:29:51.412Z,14.53
2018-06-16T03:32:19.744Z,13.65
2018-06-16T03:34:48.090Z,14.33
2018-06-16T03:37:16.437Z,13.90
2018-06-16T03:39:44.506Z,12.80
2018-06-16T03:42:12.844Z,14.05
2018-06-16T03:44:41.232Z,14.03
2018-06-16T03:47:09.591Z,13.70
2018-06-16T03:49:37.921Z,14.75
2018-06-16T03:52:06.280Z,14.30
2018-06-16T03:54:34.614Z,14.28
2018-06-16T03:57:02.949Z,13.45
2018-06-16T03:59:31.281Z,13.60
2018-06-16T04:01:59.631Z,14.80
2018-06-16T04:04:27.696Z,14.30
2018-06-16T04:06:55.747Z,13.05
2018-06-16T04:09:24.067Z,14.83
2018-06-16T04:11:52.409Z,13.95
2018-06-16T04:14:20.758Z,12.23
2018-06-16T04:16:49.117Z,11.75
2018-06-16T04:19:17.453Z,12.60
2018-06-16T04:21:45.808Z,11.95
2018-06-16T04:24:14.133Z,12.68
2018-06-16T04:26:42.485Z,11.03
2018-06-16T04:29:10.801Z,12.65
2018-06-16T04:31:42.788Z,12.15
2018-06-16T04:34:11.121Z,11.60
2018-06-16T04:36:39.227Z,11.57
2018-06-16T04:39:08.889Z,12.23
2018-06-16T04:41:37.217Z,11.75
2018-06-16T04:44:05.565Z,13.45
2018-06-16T04:46:33.607Z,11.50
2018-06-16T04:49:01.965Z,12.33
2018-06-16T04:51:30.297Z,11.80
2018-06-16T04:53:58.364Z,11.60
2018-06-16T04:56:26.677Z,12.85
2018-06-16T04:58:55.038Z,12.03
2018-06-16T05:01:23.369Z,11.57
2018-06-16T05:03:51.710Z,11.10
2018-06-16T05:06:20.042Z,11.78
2018-06-16T05:08:48.389Z,12.00
2018-06-16T05:11:16.729Z,11.83
2018-06-16T05:13:45.117Z,10.88
2018-06-16T05:16:13.444Z,11.57
2018-06-16T05:18:41.798Z,12.37
2018-06-16T05:21:10.144Z,11.57
2018-06-16T05:23:38.496Z,10.78
2018-06-16T05:26:06.845Z,9.98
2018-06-16T05:28:35.189Z,9.63
2018-06-16T05:31:03.232Z,11.00
2018-06-16T05:33:31.572Z,9.18
2018-06-16T05:35:59.892Z,9.00
2018-06-16T05:38:28.266Z,8.80
2018-06-16T05:40:56.592Z,9.08
2018-06-16T05:43:24.984Z,8.90
2018-06-16T05:45:53.334Z,8.30
2018-06-16T05:48:21.742Z,7.53
2018-06-16T05:50:50.076Z,8.90
2018-06-16T05:53:18.424Z,8.40
2018-06-16T05:55:46.817Z,8.20
2018-06-16T05:58:15.152Z,8.93
2018-06-16T06:00:43.965Z,9.38
2018-06-16T06:03:12.292Z,7.20
2018-06-16T06:05:40.363Z,7.90
2018-06-16T06:08:08.705Z,7.97
2018-06-16T06:10:37.133Z,7.33
2018-06-16T06:13:05.562Z,6.42
2018-06-16T06:15:33.905Z,6.92
2018-06-16T06:18:02.246Z,6.92
2018-06-16T06:20:30.597Z,6.55
2018-06-16T06:22:59.037Z,7.12
2018-06-16T06:25:27.402Z,6.50
2018-06-16T06:27:56.155Z,6.80
2018-06-16T06:30:24.509Z,6.72
2018-06-16T06:32:52.841Z,6.60
2018-06-16T06:35:21.316Z,6.08
2018-06-16T06:37:49.660Z,5.95
2018-06-16T06:40:18.022Z,6.55
2018-06-16T06:42:46.364Z,5.78
2018-06-16T06:45:14.828Z,6.37
2018-06-16T06:47:43.158Z,5.87
2018-06-16T06:50:11.552Z,5.47
2018-06-16T06:52:40.933Z,5.87
2018-06-16T06:55:09.323Z,5.72
2018-06-16T06:57:37.656Z,6.75
2018-06-16T07:00:06.052Z,5.55
2018-06-16T07:02:34.416Z,6.05
2018-06-16T07:05:02.889Z,7.50
2018-06-16T07:07:31.261Z,10.90
2018-06-16T07:09:59.673Z,11.08
2018-06-16T07:12:28.190Z,9.80
2018-06-16T07:14:56.571Z,10.13
2018-06-16T07:17:24.953Z,11.12
2018-06-16T07:19:53.430Z,10.82
2018-06-16T07:22:21.823Z,10.88
2018-06-16T07:24:49.940Z,11.65
2018-06-16T07:27:18.510Z,10.60
2018-06-16T07:29:46.873Z,8.15
2018-06-16T07:32:14.936Z,7.12
2018-06-16T07:34:43.264Z,8.75
2018-06-16T07:37:11.623Z,7.37
2018-06-16T07:39:39.964Z,6.30
2018-06-16T07:42:08.328Z,6.63
2018-06-16T07:44:36.656Z,6.70
2018-06-16T07:47:05.326Z,6.60
2018-06-16T07:49:33.937Z,6.40
2018-06-16T07:52:02.293Z,7.03
2018-06-16T07:54:30.616Z,7.17
2018-06-16T07:56:58.971Z,6.27
2018-06-16T07:59:27.355Z,7.07
2018-06-16T08:01:55.717Z,7.30
2018-06-16T08:04:23.755Z,6.77
2018-06-16T08:06:52.113Z,6.07
2018-06-16T08:09:20.448Z,7.03
2018-06-16T08:11:48.785Z,6.87
2018-06-16T08:14:17.128Z,6.87
2018-06-16T08:16:45.460Z,6.03
2018-06-16T08:19:13.804Z,6.60
2018-06-16T08:21:42.157Z,6.40
2018-06-16T08:24:10.493Z,6.93
2018-06-16T08:26:38.849Z,5.97
2018-06-16T08:29:07.265Z,6.30
2018-06-16T08:31:35.604Z,5.63
2018-06-16T08:34:04.016Z,5.40
2018-06-16T08:36:32.378Z,5.10
2018-06-16T08:39:00.750Z,4.97
2018-06-16T08:41:29.101Z,5.40
2018-06-16T08:43:57.465Z,4.97
2018-06-16T08:46:25.813Z,5.33
2018-06-16T08:48:54.196Z,5.40
2018-06-16T08:51:22.553Z,5.00
2018-06-16T08:53:50.957Z,4.90
2018-06-16T08:56:19.300Z,4.17
2018-06-16T08:58:48.090Z,5.37
2018-06-16T09:01:16.423Z,5.20
2018-06-16T09:03:44.770Z,4.60
2018-06-16T09:06:13.107Z,4.53
2018-06-16T09:08:41.453Z,4.60
2018-06-16T09:11:09.792Z,5.10
2018-06-16T09:13:38.136Z,5.27
2018-06-16T09:16:06.487Z,4.80
2018-06-16T09:18:34.555Z,4.87
2018-06-16T09:21:02.897Z,4.63
2018-06-16T09:23:31.259Z,5.30
2018-06-16T09:25:59.602Z,5.70
2018-06-16T09:28:27.940Z,5.20
2018-06-16T09:30:56.306Z,5.97
2018-06-16T09:33:25.492Z,5.37
2018-06-16T09:35:53.872Z,5.50
2018-06-16T09:38:22.276Z,5.00
2018-06-16T09:40:50.612Z,4.90
2018-06-16T09:43:18.947Z,5.60
2018-06-16T09:45:47.310Z,5.83
2018-06-16T09:48:15.672Z,5.73
2018-06-16T09:50:43.713Z,5.77
2018-06-16T09:53:12.053Z,5.57
2018-06-16T09:55:40.415Z,4.73
2018-06-16T09:58:08.758Z,4.80
2018-06-16T10:00:40.098Z,4.90
2018-06-16T10:03:08.636Z,4.80
2018-06-16T10:05:36.989Z,5.47
2018-06-16T10:08:05.494Z,5.10
2018-06-16T10:10:33.849Z,5.77
2018-06-16T10:13:02.474Z,5.57
2018-06-16T10:15:30.830Z,5.20
2018-06-16T10:17:59.262Z,4.27
2018-06-16T10:20:27.605Z,4.03
2018-06-16T10:22:55.940Z,4.60
2018-06-16T10:25:24.284Z,4.80
2018-06-16T10:27:52.615Z,4.70
2018-06-16T10:30:20.977Z,3.60
2018-06-16T10:32:49.309Z,4.13
2018-06-16T10:35:17.679Z,4.83
2018-06-16T10:37:46.022Z,5.00
2018-06-16T10:40:14.378Z,4.00
2018-06-16T10:42:42.704Z,3.83
2018-06-16T10:45:11.070Z,5.07
2018-06-16T10:47:39.406Z,4.23
2018-06-16T10:50:07.732Z,3.50
2018-06-16T10:52:36.080Z,3.70
2018-06-16T10:55:04.421Z,4.10
2018-06-16T10:57:32.774Z,4.00
2018-06-16T11:00:01.122Z,4.60
2018-06-16T11:02:29.485Z,4.70
2018-06-16T11:04:57.816Z,4.30
2018-06-16T11:07:26.205Z,4.37
2018-06-16T11:09:54.549Z,4.10
2018-06-16T11:12:22.909Z,4.60
2018-06-16T11:14:51.301Z,4.77
2018-06-16T11:17:19.703Z,5.00
2018-06-16T11:19:48.068Z,4.10
2018-06-16T11:22:16.416Z,4.60
2018-06-16T11:24:44.831Z,4.97
2018-06-16T11:27:13.221Z,4.43
2018-06-16T11:29:41.824Z,5.70
2018-06-16T11:32:10.168Z,4.73
2018-06-16T11:34:38.513Z,5.07
2018-06-16T11:37:06.898Z,5.60
2018-06-16T11:39:35.220Z,4.77
2018-06-16T11:42:03.588Z,4.97
2018-06-16T11:44:31.950Z,5.00
2018-06-16T11:47:00.349Z,5.00
2018-06-16T11:49:28.686Z,4.87
2018-06-16T11:51:57.177Z,4.50
2018-06-16T11:54:25.525Z,4.40
2018-06-16T11:56:53.881Z,4.20
2018-06-16T11:59:22.346Z,4.93
2018-06-16T12:01:50.425Z,5.03
2018-06-16T12:04:18.780Z,4.73
2018-06-16T12:06:47.125Z,5.20
2018-06-16T12:09:15.474Z,4.50
2018-06-16T12:11:43.839Z,4.67
2018-06-16T12:14:11.912Z,4.90
2018-06-16T12:16:40.269Z,4.50
2018-06-16T12:19:08.949Z,4.97
2018-06-16T12:21:37.512Z,5.07
2018-06-16T12:24:06.324Z,5.23
2018-06-16T12:26:34.676Z,5.50
2018-06-16T12:29:03.049Z,5.00
2018-06-16T12:31:31.437Z,4.70
2018-06-16T12:33:59.800Z,5.20
2018-06-16T12:36:28.128Z,4.70
2018-06-16T12:38:59.356Z,5.47
2018-06-16T12:41:27.901Z,4.53
2018-06-16T12:43:56.249Z,5.10
2018-06-16T12:46:24.394Z,5.10
2018-06-16T12:48:52.767Z,5.83
2018-06-16T12:51:21.200Z,4.80
2018-06-16T12:53:49.560Z,4.87
2018-06-16T12:56:17.885Z,5.47
2018-06-16T12:58:46.236Z,5.23
2018-06-16T13:01:14.326Z,5.13
2018-06-16T13:03:42.673Z,4.77
2018-06-16T13:06:10.797Z,4.40
2018-06-16T13:08:39.146Z,5.80
2018-06-16T13:11:07.475Z,5.33
2018-06-16T13:13:35.908Z,4.90
2018-06-16T13:16:04.317Z,4.90
2018-06-16T13:18:32.674Z,5.53
2018-06-16T13:21:01.013Z,4.97
2018-06-16T13:23:29.366Z,4.60
2018-06-16T13:25:57.716Z,4.80
2018-06-16T13:28:26.132Z,5.67
2018-06-16T13:30:54.465Z,5.20
2018-06-16T13:33:22.838Z,5.60
2018-06-16T13:35:51.201Z,5.03
2018-06-16T13:38:19.663Z,5.00
2018-06-16T13:40:48.006Z,5.03
2018-06-16T13:43:16.358Z,5.37
2018-06-16T13:45:44.716Z,5.40
2018-06-16T13:48:13.099Z,4.90
2018-06-16T13:50:41.560Z,6.00
2018-06-16T13:53:09.664Z,5.00
2018-06-16T13:55:37.940Z,5.17
2018-06-16T13:58:05.980Z,5.00
2018-06-16T14:00:34.381Z,5.10
2018-06-16T14:03:02.439Z,5.60
2018-06-16T14:05:30.798Z,6.20
2018-06-16T14:07:59.164Z,7.20
2018-06-16T14:10:27.528Z,12.30
2018-06-16T14:12:55.873Z,6.23
2018-06-16T14:15:24.258Z,6.13
2018-06-16T14:17:52.617Z,5.87
2018-06-16T14:20:20.982Z,5.70
2018-06-16T14:22:49.368Z,5.70
2018-06-16T14:25:17.742Z,5.83
2018-06-16T14:27:46.090Z,4.70
2018-06-16T14:30:14.442Z,6.40
2018-06-16T14:32:45.780Z,4.67
2018-06-16T14:35:14.140Z,5.60
2018-06-16T14:37:42.475Z,6.03
2018-06-16T14:40:10.826Z,5.80
2018-06-16T14:42:39.208Z,5.47
2018-06-16T14:45:07.565Z,5.40
2018-06-16T14:47:35.938Z,5.63
2018-06-16T14:50:04.326Z,4.80
2018-06-16T14:52:33.068Z,4.70
2018-06-16T14:55:01.614Z,5.00
2018-06-16T14:57:29.957Z,5.43
2018-06-16T14:59:58.020Z,4.80
2018-06-16T15:02:26.373Z,5.33
2018-06-16T15:04:54.875Z,4.40
2018-06-16T15:07:23.088Z,4.47
2018-06-16T15:09:51.460Z,4.60
2018-06-16T15:12:19.813Z,4.33
2018-06-16T15:14:48.165Z,4.90
2018-06-16T15:17:16.514Z,4.23
2018-06-16T15:19:44.844Z,4.37
2018-06-16T15:22:13.196Z,5.00
2018-06-16T15:24:41.544Z,4.30
2018-06-16T15:27:09.896Z,4.60
2018-06-16T15:29:37.940Z,4.60
2018-06-16T15:32:06.317Z,5.27
2018-06-16T15:34:34.673Z,4.93
2018-06-16T15:37:03.051Z,4.60
2018-06-16T15:39:31.389Z,4.87
2018-06-16T15:41:59.769Z,5.13
2018-06-16T15:44:28.109Z,4.70
2018-06-16T15:46:56.462Z,5.10
2018-06-16T15:49:25.625Z,4.83
2018-06-16T15:51:54.865Z,3.93
2018-06-16T15:54:24.118Z,4.80
2018-06-16T15:56:53.313Z,5.33
2018-06-16T15:59:22.215Z,5.33
2018-06-16T16:01:50.664Z,4.13
2018-06-16T16:04:19.001Z,4.23
2018-06-16T16:06:47.360Z,4.67
2018-06-16T16:09:15.788Z,4.37
2018-06-16T16:11:44.145Z,4.20
2018-06-16T16:14:12.504Z,4.63
2018-06-16T16:16:40.865Z,4.33
2018-06-16T16:19:08.917Z,4.80
2018-06-16T16:21:36.991Z,4.63
2018-06-16T16:24:05.405Z,4.70
2018-06-16T16:26:33.733Z,4.50
2018-06-16T16:29:02.112Z,5.40
2018-06-16T16:31:30.468Z,4.00
2018-06-16T16:33:58.832Z,4.73
2018-06-16T16:36:27.169Z,5.37
2018-06-16T16:38:55.537Z,4.93
2018-06-16T16:41:23.913Z,4.67
2018-06-16T16:43:52.272Z,4.40
2018-06-16T16:46:20.661Z,4.23
2018-06-16T16:48:48.985Z,4.37
2018-06-16T16:51:17.053Z,4.90
2018-06-16T16:53:45.405Z,5.37
2018-06-16T16:56:13.751Z,3.97
2018-06-16T16:58:42.085Z,4.67
2018-06-16T17:01:10.781Z,4.87
2018-06-16T17:03:39.146Z,5.00
2018-06-16T17:06:07.526Z,4.10
2018-06-16T17:08:35.928Z,4.87
2018-06-16T17:11:03.980Z,4.60
2018-06-16T17:13:32.762Z,4.33
2018-06-16T17:16:01.084Z,5.10
2018-06-16T17:18:29.734Z,4.63
2018-06-16T17:20:58.077Z,5.53
2018-06-16T17:23:26.428Z,10.63
2018-06-16T17:25:54.483Z,12.40
2018-06-16T17:28:22.828Z,7.60
2018-06-16T17:30:51.165Z,7.73
2018-06-16T17:33:19.525Z,6.37
2018-06-16T17:35:47.902Z,4.10
2018-06-16T17:38:16.210Z,4.57
2018-06-16T17:40:44.595Z,4.77
2018-06-16T17:43:12.928Z,4.40
2018-06-16T17:45:41.286Z,4.97
2018-06-16T17:48:09.613Z,4.40
2018-06-16T17:50:37.966Z,4.87
2018-06-16T17:53:06.520Z,5.20
2018-06-16T17:55:34.881Z,5.47
2018-06-16T17:58:03.233Z,5.60
2018-06-16T18:00:31.636Z,5.10
2018-06-16T18:02:59.973Z,5.20
2018-06-16T18:05:28.053Z,5.20
2018-06-16T18:07:56.104Z,5.80
2018-06-16T18:10:24.784Z,5.30
2018-06-16T18:12:53.224Z,5.13
2018-06-16T18:15:21.604Z,5.37
2018-06-16T18:17:49.997Z,5.03
2018-06-16T18:20:18.328Z,5.60
2018-06-16T18:22:46.371Z,5.53
2018-06-16T18:25:14.737Z,5.80
2018-06-16T18:27:43.069Z,5.40
2018-06-16T18:30:11.430Z,5.40
2018-06-16T18:32:39.764Z,5.40
2018-06-16T18:35:08.138Z,6.17
2018-06-16T18:37:36.548Z,6.17
2018-06-16T18:40:04.898Z,5.90
2018-06-16T18:42:33.334Z,4.90
2018-06-16T18:45:01.379Z,5.40
2018-06-16T18:47:29.769Z,5.07
2018-06-16T18:49:58.096Z,5.30
2018-06-16T18:52:26.489Z,5.53
2018-06-16T18:54:54.860Z,5.57
2018-06-16T18:57:23.221Z,6.10
2018-06-16T18:59:51.549Z,5.87
2018-06-16T19:02:19.941Z,6.07
2018-06-16T19:04:48.260Z,5.93
2018-06-16T19:07:16.614Z,6.43
2018-06-16T19:09:44.663Z,6.70
2018-06-16T19:12:13.017Z,5.90
2018-06-16T19:14:41.378Z,5.40
2018-06-16T19:17:10.048Z,5.70
2018-06-16T19:19:38.501Z,6.35
2018-06-16T19:22:06.873Z,6.37
2018-06-16T19:24:35.232Z,5.90
2018-06-16T19:27:04.352Z,5.90
2018-06-16T19:29:32.735Z,6.72
2018-06-16T19:32:01.093Z,5.87
2018-06-16T19:34:29.445Z,7.03
2018-06-16T19:36:57.885Z,5.97
2018-06-16T19:39:26.214Z,5.40
2018-06-16T19:41:54.569Z,6.42
2018-06-16T19:44:22.908Z,6.78
2018-06-16T19:46:51.317Z,6.40
2018-06-16T19:49:19.656Z,6.85
2018-06-16T19:51:48.194Z,8.40
2018-06-16T19:54:17.156Z,8.45
2018-06-16T19:56:45.530Z,9.40
2018-06-16T19:59:13.867Z,8.85
2018-06-16T20:01:42.236Z,9.93
2018-06-16T20:04:11.406Z,8.78
2018-06-16T20:06:40.107Z,8.95
2018-06-16T20:09:08.593Z,8.70
2018-06-16T20:11:42.226Z,8.45
2018-06-16T20:14:11.017Z,8.50
2018-06-16T20:16:39.848Z,8.50
2018-06-16T20:19:08.220Z,7.58
2018-06-16T20:21:36.608Z,7.47
2018-06-16T20:24:04.983Z,7.90
2018-06-16T20:26:33.316Z,8.48
2018-06-16T20:29:01.652Z,8.80
2018-06-16T20:31:29.988Z,8.68
2018-06-16T20:33:58.377Z,8.00
2018-06-16T20:36:26.714Z,8.75
2018-06-16T20:38:55.058Z,8.35
2018-06-16T20:41:23.398Z,9.18
2018-06-16T20:43:51.753Z,8.88
2018-06-16T20:46:20.077Z,8.55
2018-06-16T20:48:48.428Z,8.45
2018-06-16T20:51:16.766Z,9.08
2018-06-16T20:53:44.844Z,9.08
2018-06-16T20:56:13.189Z,8.60
2018-06-16T20:58:41.546Z,8.88
2018-06-16T21:01:09.857Z,8.35
2018-06-16T21:03:38.208Z,9.18
2018-06-16T21:06:06.541Z,8.90
2018-06-16T21:08:34.620Z,8.70
2018-06-16T21:11:02.660Z,8.98
2018-06-16T21:13:31.017Z,7.90
2018-06-16T21:15:59.352Z,9.03
2018-06-16T21:18:27.695Z,9.28
2018-06-16T21:20:56.037Z,8.40
2018-06-16T21:23:24.404Z,8.23
2018-06-16T21:25:52.756Z,8.45
2018-06-16T21:28:21.160Z,8.35
2018-06-16T21:30:49.536Z,8.95
2018-06-16T21:33:17.874Z,9.03
2018-06-16T21:35:46.227Z,8.38
2018-06-16T21:38:14.602Z,9.00
2018-06-16T21:40:42.953Z,7.70
2018-06-16T21:43:11.285Z,8.65
2018-06-16T21:45:39.665Z,8.50
2018-06-16T21:48:08.011Z,8.70
2018-06-16T21:50:36.363Z,8.73
2018-06-16T21:53:04.591Z,9.25
2018-06-16T21:55:32.936Z,9.73
2018-06-16T21:58:01.275Z,8.85
2018-06-16T22:00:35.693Z,8.35
2018-06-16T22:03:05.597Z,8.75
2018-06-16T22:05:34.051Z,8.33
2018-06-16T22:08:07.701Z,7.72
2018-06-16T22:10:36.101Z,8.73
2018-06-16T22:13:04.174Z,8.83
2018-06-16T22:15:32.431Z,8.43
2018-06-16T22:18:00.749Z,8.20
2018-06-16T22:20:29.094Z,8.53
2018-06-16T22:22:57.425Z,8.43
2018-06-16T22:25:26.046Z,9.15
2018-06-16T22:27:54.382Z,9.68
2018-06-16T22:30:22.745Z,9.60
2018-06-16T22:32:51.089Z,8.90
2018-06-16T22:35:19.497Z,8.73
2018-06-16T22:37:47.838Z,9.28
2018-06-16T22:40:16.203Z,9.68
2018-06-16T22:42:44.528Z,9.90
2018-06-16T22:45:12.861Z,9.35
2018-06-16T22:47:41.212Z,9.98
2018-06-16T22:50:09.598Z,8.75
2018-06-16T22:52:37.638Z,9.00
2018-06-16T22:55:06.055Z,9.95
2018-06-16T22:57:34.406Z,8.20
2018-06-16T23:00:02.808Z,8.63
2018-06-16T23:02:31.163Z,9.03
2018-06-16T23:04:59.501Z,8.95
2018-06-16T23:07:27.861Z,9.00
2018-06-16T23:09:56.188Z,8.90
2018-06-16T23:12:24.540Z,9.03
2018-06-16T23:14:52.905Z,9.23
2018-06-16T23:17:21.264Z,9.58
2018-06-16T23:19:49.597Z,9.35
2018-06-16T23:22:17.928Z,9.63
2018-06-16T23:24:46.277Z,10.43
2018-06-16T23:27:14.620Z,10.15
2018-06-16T23:29:42.955Z,10.13
2018-06-16T23:32:11.304Z,9.28
2018-06-16T23:34:39.640Z,9.05
2018-06-16T23:37:08.002Z,8.10
2018-06-16T23:39:36.333Z,8.23
2018-06-16T23:42:04.728Z,8.70
2018-06-16T23:44:33.061Z,8.68
2018-06-16T23:47:01.421Z,7.62
2018-06-16T23:49:29.734Z,8.25
2018-06-16T23:51:58.121Z,7.58
2018-06-16T23:54:26.457Z,7.70
2018-06-16T23:56:54.825Z,7.10
2018-06-16T23:59:23.148Z,6.83
